Time;durP1;ratioP1;P1;durP2;ratioP2;P2;SDS_P1;SDS_P2;PMS_P1;PMS_P2;Temp;Humidity;BMP_temperature;BMP_pressure;BME280_temperature;BME280_humidity;BME280_pressure;Samples;Min_cycle;Max_cycle;Signal;HPM_P1;HPM_P2
2020/12/21 00:00:43;;;;;;;45.30;20.42;;;;;;;3.99;100.00;98119.19;5022156;28;20044;-67
2020/12/21 00:03:09;;;;;;;54.80;28.90;;;;;;;3.94;100.00;98111.88;5022598;28;20146;-67
2020/12/21 00:05:34;;;;;;;55.08;25.73;;;;;;;4.99;100.00;98226.19;5026211;28;20029;-67
2020/12/21 00:08:01;;;;;;;49.92;24.77;;;;;;;5.04;100.00;98215.09;5025660;28;20482;-67
2020/12/21 00:10:30;;;;;;;63.80;28.92;;;;;;;5.11;100.00;98226.47;5025591;28;20034;-67
2020/12/21 00:12:56;;;;;;;56.05;26.77;;;;;;;4.93;100.00;98178.81;5025798;28;20564;-67
2020/12/21 00:15:22;;;;;;;59.58;29.42;;;;;;;4.71;100.00;98128.50;5025514;28;20039;-67
2020/12/21 00:17:47;;;;;;;50.67;22.80;;;;;;;5.30;100.00;98211.50;5025887;28;20420;-67
2020/12/21 00:20:13;;;;;;;55.30;23.73;;;;;;;4.74;100.00;98119.66;5027453;28;20564;-65
2020/12/21 00:22:38;;;;;;;47.83;23.98;;;;;;;4.95;99.90;98154.59;5025483;28;20041;-66
2020/12/21 00:25:04;;;;;;;51.20;25.38;;;;;;;5.07;100.00;98174.13;5027298;28;20063;-66
2020/12/21 00:27:29;;;;;;;55.78;24.77;;;;;;;5.29;100.00;98222.81;5027252;28;20039;-66
2020/12/21 00:29:55;;;;;;;51.35;23.60;;;;;;;5.23;100.00;98197.38;5026679;28;20503;-66
2020/12/21 00:32:20;;;;;;;58.60;25.02;;;;;;;4.94;100.00;98165.88;5025318;28;20037;-67
2020/12/21 00:34:46;;;;;;;53.65;25.38;;;;;;;5.34;100.00;98217.22;5025365;28;20424;-67
2020/12/21 00:37:11;;;;;;;112.72;46.58;;;;;;;4.48;100.00;98090.00;5025506;28;20049;-67
2020/12/21 00:39:37;;;;;;;72.78;33.17;;;;;;;5.38;100.00;98224.53;5026765;28;20049;-67
2020/12/21 00:42:02;;;;;;;64.68;28.77;;;;;;;5.39;100.00;98214.34;5025050;28;20120;-66
2020/12/21 00:44:27;;;;;;;54.83;26.30;;;;;;;5.39;100.00;98225.34;5025104;28;20048;-67
2020/12/21 00:46:53;;;;;;;56.78;27.45;;;;;;;5.05;100.00;98164.56;5026315;28;20034;-68
2020/12/21 00:49:18;;;;;;;66.78;29.38;;;;;;;5.41;100.00;98207.41;5026925;28;20129;-68
2020/12/21 00:51:44;;;;;;;60.50;28.77;;;;;;;5.33;100.00;98193.59;5026230;28;20152;-68
2020/12/21 00:54:09;;;;;;;78.03;35.00;;;;;;;4.95;100.00;98154.59;5026553;28;20542;-67
2020/12/21 00:56:35;;;;;;;53.58;25.55;;;;;;;4.99;100.00;98168.53;5026160;28;20114;-67
2020/12/21 00:59:00;;;;;;;47.97;20.80;;;;;;;5.44;99.48;98222.47;5026373;28;20076;-67
2020/12/21 01:01:28;;;;;;;42.97;18.88;;;;;;;5.44;99.15;98211.47;5024554;28;20033;-66
2020/12/21 01:03:54;;;;;;;40.40;20.15;;;;;;;4.77;98.92;98097.91;5024635;28;20491;-66
2020/12/21 01:06:20;;;;;;;44.03;19.52;;;;;;;5.48;99.41;98201.50;5024643;28;20037;-67
2020/12/21 01:08:45;;;;;;;48.13;19.55;;;;;;;5.32;99.77;98202.97;5026328;28;20416;-67
2020/12/21 01:11:15;;;;;;;42.75;18.65;;;;;;;5.06;99.52;98179.94;5024423;28;20033;-67
2020/12/21 01:13:42;;;;;;;48.33;20.50;;;;;;;5.08;100.00;98207.88;5025000;28;20025;-67
2020/12/21 01:16:08;;;;;;;44.85;20.05;;;;;;;4.81;100.00;98153.81;5026399;28;20033;-67
2020/12/21 01:18:34;;;;;;;45.95;20.92;;;;;;;5.16;99.85;98187.94;5024883;28;20409;-67
2020/12/21 01:21:00;;;;;;;49.50;20.23;;;;;;;5.15;100.00;98202.78;5024615;28;20049;-67
2020/12/21 01:23:25;;;;;;;44.40;19.88;;;;;;;4.86;100.00;98139.16;5024500;28;20026;-67
2020/12/21 01:25:51;;;;;;;44.65;19.48;;;;;;;5.32;99.38;98213.94;5026050;28;20048;-67
2020/12/21 01:28:17;;;;;;;39.88;19.23;;;;;;;5.21;100.00;98209.78;5025821;28;20113;-67
2020/12/21 01:30:42;;;;;;;46.13;20.38;;;;;;;4.95;100.00;98173.03;5024204;28;20128;-67
2020/12/21 01:33:09;;;;;;;46.47;19.67;;;;;;;5.27;99.63;98216.81;5025975;28;20040;-67
2020/12/21 01:35:34;;;;;;;38.22;17.67;;;;;;;4.17;100.00;98119.13;5024086;28;20060;-66
2020/12/21 01:38:00;;;;;;;39.05;17.42;;;;;;;4.49;100.00;98190.38;5025808;28;20543;-66
2020/12/21 01:40:25;;;;;;;44.65;18.95;;;;;;;4.50;100.00;98202.97;5023772;28;20080;-66
2020/12/21 01:42:52;;;;;;;41.80;18.20;;;;;;;4.60;100.00;98205.53;5024211;28;20029;-66
2020/12/21 01:45:17;;;;;;;46.65;19.48;;;;;;;3.67;100.00;98021.41;5025383;28;20044;-67
2020/12/21 01:47:43;;;;;;;46.80;22.92;;;;;;;4.52;100.00;98137.66;5024187;28;20029;-67
2020/12/21 01:50:08;;;;;;;58.45;22.52;;;;;;;4.93;100.00;98172.50;5025132;28;20563;-67
2020/12/21 01:52:34;;;;;;;47.15;19.20;;;;;;;4.81;100.00;98202.38;5025387;28;20029;-68
2020/12/21 01:55:01;;;;;;;38.10;17.27;;;;;;;5.03;100.00;98203.31;5025297;28;20508;-68
2020/12/21 01:57:26;;;;;;;43.25;17.83;;;;;;;4.95;100.00;98195.78;5023585;28;20037;-67
2020/12/21 01:59:52;;;;;;;40.40;17.17;;;;;;;5.07;100.00;98211.75;5023424;28;20033;-68
2020/12/21 02:02:17;;;;;;;41.03;17.60;;;;;;;5.00;100.00;98200.34;5024967;28;20041;-68
2020/12/21 02:04:43;;;;;;;39.20;17.30;;;;;;;4.96;100.00;98172.72;5023626;28;20048;-68
2020/12/21 02:07:12;;;;;;;37.13;16.10;;;;;;;5.04;99.04;98173.91;5023629;28;20064;-66
2020/12/21 02:09:37;;;;;;;38.33;16.15;;;;;;;4.87;98.90;98129.81;5024989;28;20122;-67
2020/12/21 02:12:03;;;;;;;43.05;16.30;;;;;;;5.13;99.82;98191.28;5024915;28;20110;-67
2020/12/21 02:14:29;;;;;;;38.92;17.00;;;;;;;5.18;100.00;98199.44;5023337;28;20036;-67
2020/12/21 02:16:54;;;;;;;40.90;16.95;;;;;;;4.84;99.72;98144.16;5024856;28;20044;-68
2020/12/21 02:19:20;;;;;;;45.50;17.55;;;;;;;5.13;99.23;98183.88;5023389;28;20064;-68
2020/12/21 02:21:46;;;;;;;35.40;15.77;;;;;;;5.23;99.13;98199.31;5023305;28;20056;-68
2020/12/21 02:24:12;;;;;;;38.53;16.42;;;;;;;4.99;97.94;98149.31;5023297;28;20052;-67
2020/12/21 02:26:37;;;;;;;33.78;14.95;;;;;;;5.31;97.89;98179.38;5022667;28;20037;-68
2020/12/21 02:29:02;;;;;;;38.90;15.52;;;;;;;5.31;97.38;98182.13;5023150;28;20037;-68
2020/12/21 02:31:28;;;;;;;35.80;15.07;;;;;;;5.35;96.55;98183.94;5023552;28;20065;-68
2020/12/21 02:33:53;;;;;;;34.78;15.38;;;;;;;5.12;98.25;98195.16;5024876;28;20084;-67
2020/12/21 02:36:19;;;;;;;38.25;15.00;;;;;;;3.44;100.00;97995.00;5024469;28;20033;-68
2020/12/21 02:38:44;;;;;;;44.65;17.33;;;;;;;4.17;100.00;98171.22;5023082;28;20029;-67
2020/12/21 02:41:18;;;;;;;39.10;14.52;;;;;;;3.99;100.00;98169.38;5022901;28;20135;-68
2020/12/21 02:43:44;;;;;;;46.13;15.73;;;;;;;3.77;100.00;98160.97;5024288;28;20492;-66
2020/12/21 02:46:11;;;;;;;45.00;15.23;;;;;;;3.86;100.00;98175.63;5023002;28;20055;-66
2020/12/21 02:48:36;;;;;;;49.92;15.55;;;;;;;4.03;100.00;98178.59;5024532;28;20430;-66
2020/12/21 02:51:02;;;;;;;40.10;14.27;;;;;;;4.16;100.00;98169.59;5022668;28;20140;-66
2020/12/21 02:53:27;;;;;;;39.45;15.20;;;;;;;4.19;100.00;98177.22;5022971;28;20136;-65
2020/12/21 02:55:53;;;;;;;47.50;18.15;;;;;;;3.95;100.00;98132.69;5022823;28;20599;-66
2020/12/21 02:58:19;;;;;;;37.85;14.23;;;;;;;4.18;100.00;98150.94;5024501;28;20504;-66
2020/12/21 03:00:44;;;;;;;35.63;12.85;;;;;;;4.35;100.00;98181.31;5022782;28;20475;-66
2020/12/21 03:03:10;;;;;;;32.40;13.45;;;;;;;4.25;100.00;98167.78;5024414;28;20037;-65
2020/12/21 03:05:36;;;;;;;38.42;12.95;;;;;;;4.31;100.00;98172.09;5024491;28;20077;-65
2020/12/21 03:08:04;;;;;;;37.60;13.43;;;;;;;4.12;100.00;98167.78;5024733;28;20072;-65
2020/12/21 03:10:30;;;;;;;38.78;13.57;;;;;;;3.91;100.00;98174.72;5024563;28;20081;-65
2020/12/21 03:12:55;;;;;;;37.45;13.10;;;;;;;3.92;100.00;98166.19;5024274;28;20104;-64
2020/12/21 03:15:21;;;;;;;41.05;12.98;;;;;;;3.67;100.00;98150.16;5024533;28;20068;-65
2020/12/21 03:17:46;;;;;;;35.20;12.65;;;;;;;3.80;100.00;98143.09;5024419;28;20038;-63
2020/12/21 03:20:12;;;;;;;31.65;12.43;;;;;;;3.48;100.00;98135.69;5024276;28;20049;-64
2020/12/21 03:22:37;;;;;;;33.88;12.35;;;;;;;3.15;100.00;98076.53;5024082;28;20045;-64
2020/12/21 03:25:03;;;;;;;37.45;13.40;;;;;;;3.61;100.00;98176.03;5022301;28;20081;-64
2020/12/21 03:27:29;;;;;;;38.25;11.90;;;;;;;2.58;100.00;98027.56;5024205;28;20061;-65
2020/12/21 03:29:54;;;;;;;36.75;13.50;;;;;;;3.24;100.00;98139.63;5024131;28;20610;-65
2020/12/21 03:32:20;;;;;;;42.20;12.73;;;;;;;3.56;100.00;98203.50;5022568;28;20107;-64
2020/12/21 03:34:45;;;;;;;30.10;11.00;;;;;;;3.37;100.00;98183.50;5023900;28;20231;-64
2020/12/21 03:37:11;;;;;;;39.67;14.15;;;;;;;3.18;100.00;98136.16;5024035;28;20057;-64
2020/12/21 03:39:37;;;;;;;38.83;13.77;;;;;;;3.57;100.00;98177.75;5023809;28;20045;-64
2020/12/21 03:42:03;;;;;;;39.90;12.90;;;;;;;3.58;100.00;98184.03;5027648;28;20029;-63
2020/12/21 03:44:29;;;;;;;35.42;13.38;;;;;;;3.52;100.00;98153.16;5026085;28;20475;-64
2020/12/21 03:46:54;;;;;;;37.72;13.10;;;;;;;3.63;100.00;98179.28;5027693;28;20080;-65
2020/12/21 03:49:20;;;;;;;36.25;12.60;;;;;;;3.54;100.00;98183.78;5027770;28;20512;-64
2020/12/21 03:51:45;;;;;;;38.35;13.23;;;;;;;3.34;100.00;98156.72;5026299;28;20084;-64
2020/12/21 03:54:11;;;;;;;38.47;12.45;;;;;;;3.34;100.00;98173.16;5027582;28;20449;-65
2020/12/21 03:56:40;;;;;;;39.40;11.90;;;;;;;3.50;100.00;98185.50;5027713;28;20389;-64
2020/12/21 03:59:05;;;;;;;36.08;13.48;;;;;;;3.64;100.00;98182.81;5027585;28;20037;-65
2020/12/21 04:01:30;;;;;;;33.90;13.27;;;;;;;3.25;100.00;98133.88;5025849;28;20087;-64
2020/12/21 04:03:56;;;;;;;37.60;12.43;;;;;;;3.17;100.00;98118.09;5026260;28;20511;-64
2020/12/21 04:06:21;;;;;;;30.50;11.50;;;;;;;3.50;100.00;98199.22;5027706;28;20033;-65
2020/12/21 04:08:47;;;;;;;42.78;14.52;;;;;;;3.81;100.00;98188.59;5026100;28;20510;-65
2020/12/21 04:11:12;;;;;;;39.00;13.48;;;;;;;4.02;100.00;98193.44;5025618;28;20239;-66
2020/12/21 04:13:38;;;;;;;47.15;20.13;;;;;;;4.14;100.00;98187.47;5025488;28;20098;-66
2020/12/21 04:16:03;;;;;;;39.72;13.75;;;;;;;4.24;100.00;98188.09;5025729;28;20049;-66
2020/12/21 04:18:29;;;;;;;51.42;27.17;;;;;;;3.64;100.00;98067.75;5027434;28;20761;-66
2020/12/21 04:20:55;;;;;;;42.13;17.95;;;;;;;3.72;100.00;98064.34;5025313;28;20049;-64
2020/12/21 04:23:20;;;;;;;38.63;18.52;;;;;;;4.55;100.00;98194.66;5025666;28;20423;-65
2020/12/21 04:25:45;;;;;;;68.32;31.80;;;;;;;4.65;100.00;98221.91;5025601;28;20044;-65
2020/12/21 04:28:11;;;;;;;61.10;33.70;;;;;;;4.72;100.00;98183.09;5026906;28;20423;-64
2020/12/21 04:30:36;;;;;;;43.67;21.50;;;;;;;4.50;100.00;98142.63;5025181;28;20037;-65
2020/12/21 04:33:02;;;;;;;36.72;14.02;;;;;;;3.87;100.00;98029.25;5027020;28;20030;-65
2020/12/21 04:35:27;;;;;;;34.70;13.50;;;;;;;4.73;100.00;98175.69;5026486;28;20523;-65
2020/12/21 04:37:53;;;;;;;37.08;13.98;;;;;;;4.83;100.00;98200.16;5026836;28;20496;-65
2020/12/21 04:40:19;;;;;;;39.90;15.00;;;;;;;4.79;100.00;98177.19;5026843;28;20561;-65
2020/12/21 04:42:49;;;;;;;36.58;15.68;;;;;;;4.67;100.00;98163.97;5027201;28;20734;-65
2020/12/21 04:45:16;;;;;;;27.08;11.32;;;;;;;4.94;100.00;98168.63;5024896;28;20033;-64
2020/12/21 04:47:43;;;;;;;34.20;12.85;;;;;;;4.84;100.00;98197.09;5025552;28;20409;-63
2020/12/21 04:50:15;;;;;;;33.92;12.95;;;;;;;4.88;100.00;98186.34;5024325;28;20439;-63
2020/12/21 04:52:51;;;;;;;33.47;12.32;;;;;;;4.86;100.00;98196.78;5026712;28;20037;-64
2020/12/21 04:55:21;;;;;;;36.03;12.65;;;;;;;4.86;100.00;98188.56;5024719;28;20088;-63
2020/12/21 04:57:54;;;;;;;38.40;13.35;;;;;;;4.71;100.00;98175.94;5024980;28;20036;-64
2020/12/21 05:00:20;;;;;;;33.35;12.40;;;;;;;4.26;100.00;98103.63;5024833;28;20038;-63
2020/12/21 05:02:45;;;;;;;31.45;12.48;;;;;;;4.04;100.00;98073.34;5026596;28;20107;-64
2020/12/21 05:05:10;;;;;;;35.65;12.35;;;;;;;4.80;100.00;98189.78;5024860;28;20549;-63
2020/12/21 05:07:36;;;;;;;31.23;11.63;;;;;;;4.62;100.00;98184.09;5026588;28;20029;-64
2020/12/21 05:10:07;;;;;;;30.95;11.60;;;;;;;4.35;100.00;98133.88;5026642;28;20045;-64
2020/12/21 05:12:36;;;;;;;31.90;12.43;;;;;;;4.47;100.00;98154.19;5024963;28;20235;-65
2020/12/21 05:15:16;;;;;;;36.10;12.38;;;;;;;4.53;100.00;98150.25;5026502;28;20080;-66
2020/12/21 05:17:41;;;;;;;31.58;11.93;;;;;;;4.55;100.00;98178.19;5026528;28;20029;-65
2020/12/21 05:20:07;;;;;;;39.92;13.02;;;;;;;4.62;100.00;98195.06;5026162;28;20114;-65
2020/12/21 05:22:32;;;;;;;36.95;13.98;;;;;;;4.52;100.00;98170.56;5024404;28;20514;-64
2020/12/21 05:25:08;;;;;;;38.83;13.55;;;;;;;4.68;100.00;98200.47;5026114;28;20046;-65
2020/12/21 05:27:34;;;;;;;35.30;13.05;;;;;;;4.10;100.00;98099.53;5006533;28;20920;-65
2020/12/21 05:30:00;;;;;;;37.00;12.10;;;;;;;4.78;100.00;98195.59;5004584;28;20072;-65
2020/12/21 05:32:26;;;;;;;30.30;11.05;;;;;;;4.68;100.00;98196.59;5004526;28;20413;-65
2020/12/21 05:34:52;;;;;;;41.67;13.88;;;;;;;4.51;100.00;98192.81;5005551;28;20030;-65
2020/12/21 05:37:21;;;;;;;49.15;14.80;;;;;;;4.33;100.00;98208.22;5006093;28;20208;-65
2020/12/21 05:39:54;;;;;;;39.67;13.48;;;;;;;4.16;100.00;98197.03;5005681;28;20037;-65
2020/12/21 05:42:21;;;;;;;42.67;14.02;;;;;;;4.08;100.00;98205.94;5003938;28;20030;-65
2020/12/21 05:45:10;;;;;;;37.58;13.25;;;;;;;4.26;100.00;98177.66;5004364;28;20030;-65
2020/12/21 05:47:36;;;;;;;45.00;14.45;;;;;;;4.18;100.00;98167.38;5021459;28;20551;-65
2020/12/21 05:50:06;;;;;;;50.30;16.35;;;;;;;4.05;100.00;98129.78;5023606;28;20049;-64
2020/12/21 05:52:35;;;;;;;38.00;13.77;;;;;;;4.45;100.00;98175.66;5023815;28;20025;-64
2020/12/21 05:55:09;;;;;;;38.15;14.18;;;;;;;4.76;100.00;98205.25;5025605;28;20053;-65
2020/12/21 05:57:36;;;;;;;30.85;12.25;;;;;;;4.26;100.00;98130.22;5025320;28;20057;-65
2020/12/21 06:00:04;;;;;;;31.20;11.88;;;;;;;4.89;100.00;98209.91;5025583;28;20059;-65
2020/12/21 06:02:33;;;;;;;27.85;11.20;;;;;;;4.81;100.00;98218.84;5024577;28;20025;-65
2020/12/21 06:05:10;;;;;;;36.67;14.15;;;;;;;4.81;100.00;98202.38;5023620;28;20099;-66
2020/12/21 06:07:37;;;;;;;36.50;13.32;;;;;;;3.88;100.00;98047.31;5023499;28;20036;-65
2020/12/21 06:10:11;;;;;;;38.33;14.55;;;;;;;4.06;100.00;98093.00;5024504;28;20098;-64
2020/12/21 06:12:47;;;;;;;50.67;23.65;;;;;;;2.73;100.00;97863.25;5019170;28;20062;-67
2020/12/21 06:15:16;;;;;;;48.05;20.98;;;;;;;4.61;100.00;98166.03;5019743;28;20037;-66
2020/12/21 06:17:42;;;;;;;45.30;20.30;;;;;;;2.41;100.00;97792.97;5024177;28;20569;-65
2020/12/21 06:20:09;;;;;;;38.53;15.30;;;;;;;4.66;100.00;98160.41;5024396;28;20303;-70
2020/12/21 06:22:36;;;;;;;37.35;14.57;;;;;;;4.78;100.00;98213.97;5023698;28;20036;-68
2020/12/21 06:25:04;;;;;;;40.72;15.27;;;;;;;4.46;100.00;98204.69;5024219;28;20507;-68
2020/12/21 06:27:37;;;;;;;39.13;14.18;;;;;;;4.54;100.00;98189.47;5022212;28;20029;-65
2020/12/21 06:30:03;;;;;;;;;;;;;;;4.75;100.00;98209.09;5022168;28;20030;-69
2020/12/21 06:32:33;;;;;;;41.20;16.48;;;;;;;3.10;100.00;97931.53;5024631;28;19939;-65
2020/12/21 06:34:59;;;;;;;48.10;19.63;;;;;;;4.83;100.00;98205.66;5024445;28;20106;-65
2020/12/21 06:37:26;;;;;;;53.80;23.02;;;;;;;4.90;100.00;98217.03;5023751;28;20029;-66
2020/12/21 06:40:04;;;;;;;45.45;18.60;;;;;;;5.02;100.00;98220.09;5023564;28;20025;-62
2020/12/21 06:42:30;;;;;;;36.15;14.50;;;;;;;4.98;100.00;98213.59;5024869;28;20073;-67
2020/12/21 06:44:57;;;;;;;37.25;12.90;;;;;;;4.77;100.00;98207.69;5022806;28;20065;-67
2020/12/21 06:47:27;;;;;;;37.17;13.50;;;;;;;3.77;100.00;98084.25;5022008;28;20029;-67
2020/12/21 06:49:53;;;;;;;38.08;14.07;;;;;;;4.28;100.00;98211.06;5023839;28;20084;-66
2020/12/21 06:52:20;;;;;;;45.20;15.13;;;;;;;3.90;100.00;98176.66;5023869;28;20073;-65
2020/12/21 06:54:48;;;;;;;41.72;13.82;;;;;;;3.54;100.00;98137.22;5024399;28;20103;-62
2020/12/21 06:57:13;;;;;;;45.88;14.13;;;;;;;4.04;100.00;98210.41;5024080;28;20116;-64
2020/12/21 06:59:39;;;;;;;40.75;13.98;;;;;;;4.07;100.00;98219.94;5024040;28;20029;-63
2020/12/21 07:02:05;;;;;;;40.85;15.30;;;;;;;4.36;100.00;98217.81;5020734;28;20448;-63
2020/12/21 07:04:35;;;;;;;33.28;12.90;;;;;;;4.28;100.00;98216.53;5023363;28;20095;-62
2020/12/21 07:07:05;;;;;;;41.60;16.45;;;;;;;3.65;100.00;98118.72;5024138;28;20029;-62
2020/12/21 07:09:31;;;;;;;39.05;14.35;;;;;;;4.42;100.00;98219.34;5023721;28;20123;-62
2020/12/21 07:11:58;;;;;;;57.70;24.35;;;;;;;4.56;100.00;98223.72;5023548;28;20033;-61
2020/12/21 07:14:25;;;;;;;61.05;25.63;;;;;;;4.55;100.00;98222.09;5026687;28;20046;-61
2020/12/21 07:17:10;;;;;;;52.35;23.27;;;;;;;4.74;100.00;98218.47;5009201;28;20096;-65
2020/12/21 07:19:38;;;;;;;53.50;22.73;;;;;;;4.51;100.00;98149.75;5026172;28;20041;-68
2020/12/21 07:22:07;;;;;;;58.03;21.00;;;;;;;4.92;100.00;98220.28;5026115;28;20091;-65
2020/12/21 07:24:34;;;;;;;53.05;21.50;;;;;;;4.97;100.00;98214.69;5022984;28;20116;-60
2020/12/21 07:26:59;;;;;;;67.60;27.52;;;;;;;5.01;100.00;98229.44;5026304;28;20035;-69
2020/12/21 07:29:34;;;;;;;58.60;24.92;;;;;;;3.82;100.00;98042.25;5026591;28;20037;-64
2020/12/21 07:32:00;;;;;;;65.68;24.90;;;;;;;5.01;100.00;98218.47;5027097;28;20040;-70
2020/12/21 07:34:27;;;;;;;55.13;23.50;;;;;;;4.13;100.00;98159.25;5027809;28;20299;-70
2020/12/21 07:36:53;;;;;;;58.42;25.60;;;;;;;4.30;100.00;98115.59;5027234;28;20553;-71
2020/12/21 07:39:19;;;;;;;43.22;18.88;;;;;;;4.88;100.00;98195.38;5025661;28;20128;-67
2020/12/21 07:41:47;;;;;;;42.35;18.50;;;;;;;4.94;100.00;98229.03;5027411;28;20450;-67
2020/12/21 07:44:16;;;;;;;40.55;17.88;;;;;;;4.60;100.00;98224.75;5027321;28;20071;-70
2020/12/21 07:47:02;;;;;;;43.85;16.05;;;;;;;4.48;100.00;98227.16;5025844;28;20025;-65
2020/12/21 07:49:32;;;;;;;40.10;16.38;;;;;;;3.90;100.00;98165.69;5017466;28;20140;-60
2020/12/21 07:51:59;;;;;;;39.13;14.73;;;;;;;3.88;100.00;98180.78;5007411;28;20046;-63
2020/12/21 07:54:28;;;;;;;40.92;15.38;;;;;;;4.32;100.00;98236.78;5007351;28;20070;-73
2020/12/21 07:57:20;;;;;;;38.83;15.35;;;;;;;3.85;100.00;98167.69;5006402;28;20030;-63
2020/12/21 07:59:58;;;;;;;39.65;16.08;;;;;;;3.39;100.00;98093.66;5025151;28;20060;-72
2020/12/21 08:02:25;;;;;;;31.67;12.60;;;;;;;4.23;100.00;98240.50;5026290;28;20037;-70
2020/12/21 08:04:50;;;;;;;43.97;16.83;;;;;;;4.31;100.00;98237.91;5026934;28;20539;-68
2020/12/21 08:07:16;;;;;;;37.08;15.98;;;;;;;4.30;100.00;98235.47;5026153;28;20025;-70
2020/12/21 08:09:44;;;;;;;40.80;15.35;;;;;;;4.38;100.00;98232.81;5026262;28;20061;-64
2020/12/21 08:12:12;;;;;;;37.75;16.30;;;;;;;4.40;100.00;98232.53;5026583;28;20045;-67
2020/12/21 08:14:38;;;;;;;40.67;16.65;;;;;;;4.40;100.00;98241.59;5026356;28;20033;-68
2020/12/21 08:17:19;;;;;;;37.05;15.27;;;;;;;3.49;100.00;98059.81;5026404;28;20033;-67
2020/12/21 08:19:55;;;;;;;31.15;13.77;;;;;;;1.68;100.00;97815.72;5025069;28;20116;-69
2020/12/21 08:22:21;;;;;;;27.63;12.23;;;;;;;4.31;100.00;98152.88;5025983;28;20512;-69
2020/12/21 08:25:02;;;;;;;33.97;16.35;;;;;;;5.03;100.00;98233.50;5024303;28;20112;-69
2020/12/21 08:27:28;;;;;;;39.10;19.13;;;;;;;5.29;100.00;98225.56;5024481;28;20115;-71
2020/12/21 08:30:07;;;;;;;47.72;22.75;;;;;;;5.50;100.00;98221.25;5024383;28;20484;-74
2020/12/21 08:32:33;;;;;;;42.53;20.65;;;;;;;4.91;99.32;98108.84;5024328;28;20061;-64
2020/12/21 08:34:59;;;;;;;40.33;22.25;;;;;;;5.74;98.71;98222.59;5014095;28;20088;-65
2020/12/21 08:37:26;;;;;;;38.08;19.88;;;;;;;5.90;97.14;98226.66;5023510;28;20519;-68
2020/12/21 08:39:51;;;;;;;40.95;21.65;;;;;;;5.92;94.13;98218.91;5024315;28;20045;-68
2020/12/21 08:42:16;;;;;;;36.67;20.13;;;;;;;5.18;94.01;98078.59;5026612;28;20243;-70
2020/12/21 08:44:42;;;;;;;29.10;14.50;;;;;;;5.12;92.85;98093.56;5025691;28;20038;-75
2020/12/21 08:47:07;;;;;;;37.42;18.27;;;;;;;2.36;90.53;97599.00;5024655;28;20175;-72
2020/12/21 08:49:33;;;;;;;54.17;26.02;;;;;;;6.36;90.94;98218.06;5025693;28;20393;-64
2020/12/21 08:52:00;;;;;;;858.95;355.65;;;;;;;6.35;85.63;98188.94;5023708;28;20053;-64
2020/12/21 08:54:25;;;;;;;281.30;128.85;;;;;;;6.42;87.38;98214.06;5015219;28;20033;-67
2020/12/21 08:56:52;;;;;;;71.40;38.30;;;;;;;5.60;89.29;98111.06;5024844;28;20095;-74
2020/12/21 08:59:18;;;;;;;31.20;16.80;;;;;;;5.83;88.88;98105.28;5025792;28;20077;-68
2020/12/21 09:01:44;;;;;;;50.45;26.05;;;;;;;6.13;88.31;98120.22;5026465;28;20106;-69
2020/12/21 09:04:10;;;;;;;87.88;47.50;;;;;;;5.85;88.39;98069.22;5026188;28;20045;-70
2020/12/21 09:06:36;;;;;;;33.50;18.48;;;;;;;6.85;86.78;98197.75;5026301;28;20033;-64
2020/12/21 09:09:02;;;;;;;43.33;22.10;;;;;;;6.80;86.19;98200.66;5025774;28;20040;-64
2020/12/21 09:11:27;;;;;;;49.25;23.90;;;;;;;6.91;86.74;98197.28;5024356;28;20071;-67
2020/12/21 09:13:53;;;;;;;25.58;12.77;;;;;;;6.27;85.01;98079.66;5025697;28;20025;-67
2020/12/21 09:16:20;;;;;;;23.95;11.38;;;;;;;6.53;86.06;98198.91;5025531;28;20049;-63
2020/12/21 09:18:47;;;;;;;23.83;10.75;;;;;;;6.59;85.04;98200.38;5024770;28;20032;-62
2020/12/21 09:21:38;;;;;;;31.67;16.05;;;;;;;6.73;84.95;98192.88;5024926;28;20519;-62
2020/12/21 09:24:03;;;;;;;20.65;10.65;;;;;;;6.46;85.26;98187.56;5022578;28;20080;-72
2020/12/21 09:26:29;;;;;;;21.98;10.18;;;;;;;6.02;87.82;98180.16;5025025;28;20120;-62
2020/12/21 09:28:55;;;;;;;22.60;10.68;;;;;;;5.55;91.81;98188.13;5025775;28;20053;-62
2020/12/21 09:31:22;;;;;;;25.92;10.57;;;;;;;4.93;90.59;98032.50;5024739;28;20432;-61
2020/12/21 09:33:48;;;;;;;23.48;10.30;;;;;;;5.22;92.63;98132.59;5025240;28;20029;-61
2020/12/21 09:36:15;;;;;;;20.88;10.98;;;;;;;5.30;94.34;98174.97;5023564;28;20041;-60
2020/12/21 09:38:41;;;;;;;20.98;9.15;;;;;;;5.11;95.80;98174.31;5025461;28;20470;-60
2020/12/21 09:41:07;;;;;;;23.92;11.23;;;;;;;4.90;95.69;98118.22;5024206;28;20037;-60
2020/12/21 09:43:33;;;;;;;21.05;9.13;;;;;;;5.42;94.11;98180.78;5025347;28;20598;-61
2020/12/21 09:45:59;;;;;;;20.33;9.82;;;;;;;5.26;95.14;98176.72;5023947;28;20037;-60
2020/12/21 09:48:25;;;;;;;18.17;8.80;;;;;;;5.16;95.62;98176.94;5025166;28;20067;-60
2020/12/21 09:50:50;;;;;;;26.70;10.98;;;;;;;5.32;97.20;98170.00;5025037;28;20107;-62
2020/12/21 09:53:16;;;;;;;22.42;11.52;;;;;;;4.65;97.62;98111.31;5023348;28;20651;-63
2020/12/21 09:55:42;;;;;;;23.00;10.30;;;;;;;5.01;98.66;98158.06;5022907;28;20041;-60
2020/12/21 09:58:08;;;;;;;24.08;10.85;;;;;;;4.87;99.11;98160.00;5015931;28;20034;-62
2020/12/21 10:00:34;;;;;;;25.88;11.48;;;;;;;4.93;100.00;98159.59;5025048;28;20555;-63
2020/12/21 10:02:59;;;;;;;28.25;11.45;;;;;;;5.22;99.80;98149.06;5025396;28;20063;-65
2020/12/21 10:05:24;;;;;;;27.33;12.60;;;;;;;5.22;98.50;98123.53;5025247;28;20523;-62
2020/12/21 10:07:50;;;;;;;22.27;11.05;;;;;;;5.42;97.50;98153.28;5024285;28;20032;-64
2020/12/21 10:10:15;;;;;;;19.90;9.50;;;;;;;4.53;98.72;98103.63;5025101;28;20036;-61
2020/12/21 10:12:41;;;;;;;35.92;16.65;;;;;;;5.02;99.71;98140.47;5025080;28;20064;-63
2020/12/21 10:15:07;;;;;;;42.22;18.55;;;;;;;5.45;97.98;98153.50;5023119;28;20041;-62
2020/12/21 10:17:33;;;;;;;40.28;21.45;;;;;;;5.77;97.79;98155.22;5024411;28;20455;-62
2020/12/21 10:19:58;;;;;;;28.73;14.63;;;;;;;3.44;93.69;97788.81;5024717;28;20041;-66
2020/12/21 10:22:24;;;;;;;30.08;15.30;;;;;;;5.87;91.93;98152.22;5024291;28;20471;-61
2020/12/21 10:24:49;;;;;;;42.05;21.42;;;;;;;6.00;93.62;98121.09;5024725;28;20033;-61
2020/12/21 10:27:14;;;;;;;49.42;22.38;;;;;;;6.31;91.10;98149.41;5024201;28;20053;-64
2020/12/21 10:29:40;;;;;;;31.60;15.75;;;;;;;6.45;91.02;98138.31;5024299;28;20590;-64
2020/12/21 10:32:05;;;;;;;19.75;10.20;;;;;;;6.56;91.17;98143.22;5023701;28;20027;-63
2020/12/21 10:34:31;;;;;;;29.38;13.48;;;;;;;6.62;88.02;98144.72;5024556;28;20036;-63
2020/12/21 10:36:57;;;;;;;27.55;12.43;;;;;;;5.78;87.23;98031.19;5013417;28;20030;-63
2020/12/21 10:39:22;;;;;;;15.30;7.82;;;;;;;5.77;88.93;98141.47;5019482;28;20037;-64
2020/12/21 10:41:48;;;;;;;35.92;15.27;;;;;;;6.03;90.87;98142.47;5017370;28;20038;-64
2020/12/21 10:44:14;;;;;;;18.33;9.35;;;;;;;5.47;91.34;98147.69;5023189;28;20045;-61
2020/12/21 10:46:39;;;;;;;22.15;11.00;;;;;;;5.27;95.42;98128.91;5022870;28;20341;-61
2020/12/21 10:49:05;;;;;;;22.50;10.07;;;;;;;5.21;96.99;98135.63;5023206;28;20037;-63
2020/12/21 10:51:32;;;;;;;33.95;15.77;;;;;;;4.80;100.00;98058.88;5023067;28;20045;-61
2020/12/21 10:53:58;;;;;;;26.60;12.55;;;;;;;4.85;96.15;98019.50;5019114;28;20049;-63
2020/12/21 10:56:25;;;;;;;24.38;10.80;;;;;;;5.20;95.21;98090.09;5004680;28;20581;-63
2020/12/21 10:58:51;;;;;;;28.92;12.85;;;;;;;4.85;98.64;98082.63;5003151;28;20087;-63
2020/12/21 11:01:17;;;;;;;27.75;11.73;;;;;;;5.12;98.77;98146.53;5004628;28;20038;-63
2020/12/21 11:03:43;;;;;;;23.45;10.32;;;;;;;4.68;99.69;98108.78;5023738;28;20029;-63
2020/12/21 11:06:09;;;;;;;24.23;10.25;;;;;;;4.71;100.00;98132.03;5022573;28;20033;-63
2020/12/21 11:08:35;;;;;;;25.23;10.57;;;;;;;4.77;100.00;98138.25;5022748;28;20509;-63
2020/12/21 11:11:00;;;;;;;18.73;6.38;;;;;;;4.35;100.00;98118.25;5021745;28;20091;-62
2020/12/21 11:13:26;;;;;;;16.05;7.15;;;;;;;4.38;100.00;98068.25;5021801;28;20044;-63
2020/12/21 11:15:51;;;;;;;18.58;8.13;;;;;;;4.39;100.00;98020.50;5023636;28;20025;-60
2020/12/21 11:18:17;;;;;;;18.90;8.75;;;;;;;5.22;96.39;98131.75;5021863;28;20034;-63